Time;durP1;ratioP1;P1;durP2;ratioP2;P2;SDS_P1;SDS_P2;PMS_P1;PMS_P2;Temp;Humidity;BMP_temperature;BMP_pressure;BME280_temperature;BME280_humidity;BME280_pressure;Samples;Min_cycle;Max_cycle;Signal;HPM_P1;HPM_P2
2022/01/16 00:00:54;;;;;;;70.50;40.17;;;;;;;;;;5107448;27;20019;-78
2022/01/16 00:06:04;;;;;;;70.13;38.33;;;;;;;;;;5108464;27;20072;-76
2022/01/16 00:08:29;;;;;;;99.53;58.03;;;;;;;;;;5106464;27;20020;-78
2022/01/16 00:10:55;;;;;;;93.85;52.83;;;;;;;;;;5098210;28;20196;-76
2022/01/16 00:13:20;;;;;;;93.15;53.75;;;;;;;;;;5098118;28;20089;-76
2022/01/16 00:15:45;;;;;;;101.85;56.40;;;;;;;;;;5098329;28;20458;-75
2022/01/16 00:18:21;;;;;;;87.10;49.45;;;;;;;;;;5097164;28;20190;-76
2022/01/16 00:20:46;;;;;;;49.50;29.08;;;;;;;;;;5103115;27;20015;-76
2022/01/16 00:23:11;;;;;;;60.08;34.47;;;;;;;;;;5116748;27;20389;-76
2022/01/16 00:25:37;;;;;;;74.38;45.10;;;;;;;;;;5117270;27;20019;-79
2022/01/16 00:28:02;;;;;;;51.45;30.45;;;;;;;;;;5118633;27;20102;-76
2022/01/16 00:30:28;;;;;;;50.75;31.20;;;;;;;;;;5116698;27;20399;-76
2022/01/16 00:32:59;;;;;;;52.90;33.83;;;;;;;;;;5117113;27;20027;-78
2022/01/16 00:35:24;;;;;;;56.05;34.92;;;;;;;;;;5117049;27;20022;-78
2022/01/16 00:37:52;;;;;;;57.45;35.05;;;;;;;;;;5116752;27;20015;-76
2022/01/16 00:40:17;;;;;;;69.30;42.70;;;;;;;;;;5119236;27;20022;-77
2022/01/16 00:42:43;;;;;;;65.40;40.13;;;;;;;;;;5118414;27;20521;-76
2022/01/16 00:45:08;;;;;;;78.22;44.45;;;;;;;;;;5118260;27;20504;-76
2022/01/16 00:47:33;;;;;;;63.60;37.92;;;;;;;;;;5116512;27;20382;-77
2022/01/16 00:49:59;;;;;;;68.07;40.78;;;;;;;;;;5117115;27;20050;-79
2022/01/16 00:52:24;;;;;;;57.50;35.97;;;;;;;;;;5117897;27;20027;-77
2022/01/16 00:54:49;;;;;;;62.30;36.63;;;;;;;;;;5117117;27;20029;-79
2022/01/16 00:57:15;;;;;;;74.57;44.53;;;;;;;;;;5118364;27;20023;-77
2022/01/16 00:59:40;;;;;;;65.72;41.05;;;;;;;;;;5118845;27;20023;-77
2022/01/16 01:02:06;;;;;;;96.13;52.95;;;;;;;;;;5118270;27;20062;-78
2022/01/16 01:04:31;;;;;;;92.70;49.53;;;;;;;;;;5111129;27;20023;-77
2022/01/16 01:06:57;;;;;;;87.20;48.35;;;;;;;;;;5099505;27;20019;-78
2022/01/16 01:09:22;;;;;;;111.82;65.57;;;;;;;;;;5095696;28;20457;-77
2022/01/16 01:11:49;;;;;;;94.18;56.13;;;;;;;;;;5095285;28;20100;-77
2022/01/16 01:14:23;;;;;;;77.30;46.75;;;;;;;;;;5097445;28;20059;-77
2022/01/16 01:17:01;;;;;;;69.13;42.38;;;;;;;;;;5097416;28;20019;-76
2022/01/16 01:19:32;;;;;;;69.22;41.15;;;;;;;;;;5097315;28;20041;-80
2022/01/16 01:21:57;;;;;;;55.88;31.17;;;;;;;;;;5095904;28;20396;-79
2022/01/16 01:24:23;;;;;;;56.50;34.85;;;;;;;;;;5097001;28;20020;-78
2022/01/16 01:27:07;;;;;;;52.28;30.30;;;;;;;;;;5097215;28;20027;-77
2022/01/16 01:29:32;;;;;;;77.72;41.75;;;;;;;;;;5095434;28;20326;-78
2022/01/16 01:31:58;;;;;;;58.35;32.63;;;;;;;;;;5095430;28;20023;-75
2022/01/16 01:34:24;;;;;;;40.03;23.88;;;;;;;;;;5096947;28;20016;-79
2022/01/16 01:36:50;;;;;;;44.97;26.10;;;;;;;;;;5097992;27;20588;-80
2022/01/16 01:39:17;;;;;;;40.28;24.52;;;;;;;;;;5103959;27;20019;-77
2022/01/16 01:41:43;;;;;;;38.22;23.63;;;;;;;;;;5096212;27;20027;-77
2022/01/16 01:52:20;;;;;;;35.38;22.42;;;;;;;;;;5096684;28;20038;-77
2022/01/16 01:54:46;;;;;;;33.58;19.83;;;;;;;;;;5096293;28;20401;-80
2022/01/16 01:57:12;;;;;;;38.25;23.52;;;;;;;;;;5096571;28;20054;-78
2022/01/16 01:59:39;;;;;;;49.58;30.15;;;;;;;;;;5096574;28;20016;-78
2022/01/16 02:02:05;;;;;;;43.08;26.17;;;;;;;;;;5096793;28;20024;-78
2022/01/16 02:04:30;;;;;;;43.17;26.02;;;;;;;;;;5096665;28;20069;-80
2022/01/16 02:06:57;;;;;;;39.25;23.88;;;;;;;;;;5096470;28;20034;-80
2022/01/16 02:09:22;;;;;;;36.80;24.65;;;;;;;;;;5094364;28;20080;-80
2022/01/16 02:11:48;;;;;;;39.88;24.02;;;;;;;;;;5096427;28;20047;-76
2022/01/16 02:14:31;;;;;;;36.03;22.13;;;;;;;;;;5096306;28;20052;-77
2022/01/16 02:35:39;;;;;;;33.60;21.08;;;;;;;;;;5116088;27;20019;-77
2022/01/16 02:38:06;;;;;;;34.25;21.35;;;;;;;;;;5116155;27;20046;-77
2022/01/16 02:40:31;;;;;;;30.88;19.15;;;;;;;;;;5116553;27;20463;-78
2022/01/16 02:42:57;;;;;;;33.42;20.77;;;;;;;;;;5116484;27;20106;-77
2022/01/16 02:45:35;;;;;;;32.20;19.20;;;;;;;;;;5115902;27;20055;-77
2022/01/16 02:48:02;;;;;;;77.88;39.80;;;;;;;;;;5113910;27;20019;-79
2022/01/16 02:50:28;;;;;;;73.47;44.17;;;;;;;;;;5105073;27;20051;-77
2022/01/16 02:52:53;;;;;;;57.70;35.92;;;;;;;;;;5095883;28;20059;-79
2022/01/16 02:55:21;;;;;;;63.60;38.22;;;;;;;;;;5095466;28;20019;-76
2022/01/16 02:57:47;;;;;;;52.15;28.70;;;;;;;;;;5093485;28;20454;-79
2022/01/16 03:00:12;;;;;;;61.13;36.25;;;;;;;;;;5096574;28;20023;-78
2022/01/16 03:02:38;;;;;;;47.13;27.13;;;;;;;;;;5093859;28;20077;-79
2022/01/16 03:05:04;;;;;;;44.20;26.70;;;;;;;;;;5093969;28;20019;-79
2022/01/16 03:07:29;;;;;;;42.50;24.17;;;;;;;;;;5095172;28;20023;-79
2022/01/16 03:10:19;;;;;;;34.83;20.02;;;;;;;;;;5094793;28;20027;-79
2022/01/16 03:12:47;;;;;;;36.83;22.27;;;;;;;;;;5093098;28;20503;-78
2022/01/16 03:15:14;;;;;;;33.70;20.08;;;;;;;;;;5093477;28;20448;-79
2022/01/16 03:23:07;;;;;;;35.05;19.45;;;;;;;;;;5095683;28;20169;-78
2022/01/16 03:25:33;;;;;;;32.55;18.95;;;;;;;;;;5093186;28;20474;-78
2022/01/16 03:27:58;;;;;;;35.13;19.70;;;;;;;;;;5094854;28;20024;-76
2022/01/16 03:30:23;;;;;;;63.17;33.80;;;;;;;;;;5095424;28;20024;-77
2022/01/16 03:32:49;;;;;;;41.47;23.52;;;;;;;;;;5093349;28;20556;-76
2022/01/16 03:35:14;;;;;;;46.33;24.65;;;;;;;;;;5099764;28;20027;-78
2022/01/16 03:37:40;;;;;;;34.45;20.83;;;;;;;;;;5098851;28;20099;-78
2022/01/16 03:40:10;;;;;;;52.53;28.48;;;;;;;;;;5097693;28;20169;-77
2022/01/16 03:42:36;;;;;;;46.22;25.80;;;;;;;;;;5097827;28;20371;-79
2022/01/16 03:45:02;;;;;;;49.25;27.27;;;;;;;;;;5098547;28;20049;-78
2022/01/16 03:47:28;;;;;;;44.50;24.33;;;;;;;;;;5098240;28;20423;-77
2022/01/16 03:49:53;;;;;;;47.78;25.88;;;;;;;;;;5097743;28;20122;-77
2022/01/16 03:52:18;;;;;;;40.20;23.67;;;;;;;;;;5097305;28;20027;-76
2022/01/16 03:54:44;;;;;;;46.58;26.02;;;;;;;;;;5097180;28;20023;-77
2022/01/16 03:57:09;;;;;;;46.47;25.35;;;;;;;;;;5099375;27;20047;-79
2022/01/16 03:59:34;;;;;;;41.75;23.38;;;;;;;;;;5097324;28;20027;-78
2022/01/16 04:02:00;;;;;;;40.42;22.90;;;;;;;;;;5097358;28;20057;-77
2022/01/16 04:04:25;;;;;;;47.40;25.42;;;;;;;;;;5098887;28;20020;-77
2022/01/16 04:06:51;;;;;;;51.08;26.05;;;;;;;;;;5098515;28;20485;-76
2022/01/16 04:09:16;;;;;;;39.72;23.50;;;;;;;;;;5097026;28;20062;-76
2022/01/16 04:11:51;;;;;;;63.38;35.22;;;;;;;;;;5096560;28;20494;-77
2022/01/16 04:14:22;;;;;;;56.53;31.02;;;;;;;;;;5097758;28;20020;-76
2022/01/16 04:16:48;;;;;;;45.45;25.67;;;;;;;;;;5096946;28;20028;-77
2022/01/16 04:19:13;;;;;;;48.13;25.83;;;;;;;;;;5096752;28;21002;-77
2022/01/16 04:21:39;;;;;;;42.05;24.45;;;;;;;;;;5098192;28;20476;-78
2022/01/16 04:24:04;;;;;;;52.58;30.40;;;;;;;;;;5096952;28;20081;-76
2022/01/16 04:26:30;;;;;;;54.70;30.75;;;;;;;;;;5097001;28;20084;-79
2022/01/16 04:28:55;;;;;;;60.22;28.88;;;;;;;;;;5096207;28;20052;-77
2022/01/16 04:31:21;;;;;;;61.67;32.88;;;;;;;;;;5096627;28;20023;-78
2022/01/16 04:33:46;;;;;;;60.55;30.45;;;;;;;;;;5098625;28;20027;-76
2022/01/16 04:36:12;;;;;;;77.85;40.40;;;;;;;;;;5097558;28;20043;-77
2022/01/16 04:38:44;;;;;;;136.05;55.00;;;;;;;;;;5096383;28;20030;-78
2022/01/16 04:43:53;;;;;;;55.65;30.60;;;;;;;;;;5097132;28;20119;-77
2022/01/16 04:46:20;;;;;;;55.05;30.98;;;;;;;;;;5098327;28;20110;-77
2022/01/16 04:48:45;;;;;;;62.70;32.90;;;;;;;;;;5097273;28;20098;-77
2022/01/16 04:51:11;;;;;;;139.25;64.32;;;;;;;;;;5098862;28;20447;-78
2022/01/16 04:53:38;;;;;;;165.18;79.18;;;;;;;;;;5097785;28;20028;-76
2022/01/16 04:56:04;;;;;;;192.68;91.47;;;;;;;;;;5097622;28;20058;-77
2022/01/16 04:58:29;;;;;;;146.18;63.97;;;;;;;;;;5097752;28;20062;-77
2022/01/16 05:00:55;;;;;;;108.15;51.40;;;;;;;;;;5096323;28;20450;-77
2022/01/16 05:03:21;;;;;;;85.32;42.25;;;;;;;;;;5095988;28;20110;-78
2022/01/16 05:05:46;;;;;;;118.30;55.20;;;;;;;;;;5098381;28;20073;-77
2022/01/16 05:08:11;;;;;;;83.30;44.00;;;;;;;;;;5098014;28;20092;-77
2022/01/16 05:10:37;;;;;;;61.20;34.22;;;;;;;;;;5096979;28;20024;-78
2022/01/16 05:13:28;;;;;;;55.75;31.00;;;;;;;;;;5097571;28;20130;-78
2022/01/16 05:18:36;;;;;;;63.78;35.08;;;;;;;;;;5097308;28;20045;-78
2022/01/16 05:21:02;;;;;;;79.90;42.13;;;;;;;;;;5097175;28;20024;-77
2022/01/16 05:23:27;;;;;;;59.20;33.80;;;;;;;;;;5096009;28;20073;-78
2022/01/16 05:25:52;;;;;;;51.30;27.85;;;;;;;;;;5095446;28;20064;-78
2022/01/16 05:28:18;;;;;;;94.57;48.35;;;;;;;;;;5096652;28;20098;-76
2022/01/16 05:30:43;;;;;;;160.40;83.13;;;;;;;;;;5095199;28;20084;-76
2022/01/16 05:33:09;;;;;;;130.40;69.65;;;;;;;;;;5095262;28;20565;-79
2022/01/16 05:35:35;;;;;;;107.95;52.28;;;;;;;;;;5095684;28;20034;-78
2022/01/16 05:38:00;;;;;;;197.90;102.22;;;;;;;;;;5095065;28;20092;-76
2022/01/16 05:40:25;;;;;;;232.32;112.43;;;;;;;;;;5096537;27;20020;-78
2022/01/16 05:42:51;;;;;;;270.23;129.93;;;;;;;;;;5096561;28;20102;-78
2022/01/16 05:45:16;;;;;;;277.05;131.02;;;;;;;;;;5095231;28;20015;-76
2022/01/16 05:47:41;;;;;;;320.48;160.02;;;;;;;;;;5096908;28;20065;-78
2022/01/16 05:50:07;;;;;;;356.63;167.30;;;;;;;;;;5096431;28;20073;-78
2022/01/16 05:52:32;;;;;;;282.95;141.23;;;;;;;;;;5094641;28;20059;-79
2022/01/16 05:54:58;;;;;;;267.52;132.40;;;;;;;;;;5095974;28;20024;-78
2022/01/16 05:57:23;;;;;;;252.25;125.68;;;;;;;;;;5094206;28;20031;-77
2022/01/16 05:59:48;;;;;;;258.50;129.88;;;;;;;;;;5095027;28;20023;-78
2022/01/16 06:02:14;;;;;;;276.85;138.60;;;;;;;;;;5094957;28;20474;-78
2022/01/16 06:04:39;;;;;;;273.95;136.45;;;;;;;;;;5096029;28;20028;-78
2022/01/16 06:07:05;;;;;;;212.52;111.38;;;;;;;;;;5094489;28;20451;-77
2022/01/16 06:09:31;;;;;;;190.20;105.20;;;;;;;;;;5094802;28;20118;-77
2022/01/16 06:11:57;;;;;;;158.32;84.20;;;;;;;;;;5094264;28;20130;-77
2022/01/16 06:14:23;;;;;;;124.38;60.97;;;;;;;;;;5094508;28;20043;-76
2022/01/16 06:16:50;;;;;;;143.02;74.80;;;;;;;;;;5097489;28;20082;-79
2022/01/16 06:19:15;;;;;;;262.98;118.80;;;;;;;;;;5094626;28;20800;-77
2022/01/16 06:21:40;;;;;;;318.80;136.40;;;;;;;;;;5094360;28;20028;-78
2022/01/16 06:24:06;;;;;;;352.45;151.95;;;;;;;;;;5094599;28;20030;-77
2022/01/16 06:26:31;;;;;;;247.05;118.75;;;;;;;;;;5095653;28;20027;-77
2022/01/16 06:28:57;;;;;;;239.88;116.32;;;;;;;;;;5094457;28;20115;-78
2022/01/16 06:31:23;;;;;;;160.10;80.72;;;;;;;;;;5095780;28;20019;-78
2022/01/16 06:33:48;;;;;;;125.45;65.10;;;;;;;;;;5093990;28;20031;-78
2022/01/16 06:36:13;;;;;;;179.00;90.72;;;;;;;;;;5096193;28;20099;-78
2022/01/16 06:38:39;;;;;;;212.02;105.55;;;;;;;;;;5099622;27;20529;-77
2022/01/16 06:41:04;;;;;;;140.90;73.40;;;;;;;;;;5113973;27;20026;-79
2022/01/16 06:43:30;;;;;;;114.78;53.33;;;;;;;;;;5114633;27;20060;-77
2022/01/16 06:45:56;;;;;;;232.20;110.65;;;;;;;;;;5114656;27;20026;-78
2022/01/16 06:48:22;;;;;;;229.52;111.68;;;;;;;;;;5113774;27;20027;-78
2022/01/16 06:50:47;;;;;;;232.85;114.05;;;;;;;;;;5114858;27;20657;-79
2022/01/16 06:53:13;;;;;;;216.07;109.35;;;;;;;;;;5115134;27;20027;-78
2022/01/16 06:55:38;;;;;;;188.38;101.95;;;;;;;;;;5116766;27;20023;-79
2022/01/16 06:58:03;;;;;;;185.93;100.85;;;;;;;;;;5114616;27;20027;-78
2022/01/16 07:00:29;;;;;;;278.90;140.40;;;;;;;;;;5115739;27;20031;-79
2022/01/16 07:02:54;;;;;;;219.30;111.20;;;;;;;;;;5114638;27;20054;-78
2022/01/16 07:05:20;;;;;;;183.20;94.32;;;;;;;;;;5114399;27;20012;-78
2022/01/16 07:07:45;;;;;;;241.40;132.50;;;;;;;;;;5114019;27;20521;-80
2022/01/16 07:10:11;;;;;;;216.15;120.68;;;;;;;;;;5116717;27;20101;-78
2022/01/16 07:12:36;;;;;;;160.52;87.15;;;;;;;;;;5115344;27;20051;-77
2022/01/16 07:15:01;;;;;;;225.13;124.68;;;;;;;;;;5116196;28;20016;-77
2022/01/16 07:17:27;;;;;;;235.73;130.65;;;;;;;;;;5115670;27;20488;-76
2022/01/16 07:19:52;;;;;;;298.08;168.48;;;;;;;;;;5115835;27;20488;-80
2022/01/16 07:22:21;;;;;;;264.35;136.07;;;;;;;;;;5114317;28;20121;-79
2022/01/16 07:24:46;;;;;;;373.05;192.95;;;;;;;;;;5115599;28;20020;-81
2022/01/16 07:27:12;;;;;;;376.92;213.05;;;;;;;;;;5116099;27;20030;-78
2022/01/16 07:29:37;;;;;;;551.03;326.33;;;;;;;;;;5115156;28;20094;-78
2022/01/16 07:32:03;;;;;;;448.98;265.38;;;;;;;;;;5114048;28;20125;-79
2022/01/16 07:34:28;;;;;;;406.33;225.55;;;;;;;;;;5114181;28;20152;-79
2022/01/16 07:36:53;;;;;;;456.80;282.30;;;;;;;;;;5113808;28;20117;-78
2022/01/16 07:39:19;;;;;;;414.85;244.20;;;;;;;;;;5114576;28;20027;-79
2022/01/16 07:41:44;;;;;;;427.90;227.15;;;;;;;;;;5115870;28;20035;-76
2022/01/16 07:44:10;;;;;;;362.38;181.60;;;;;;;;;;5115435;27;20049;-77
2022/01/16 07:46:35;;;;;;;384.52;209.20;;;;;;;;;;5109424;28;20111;-79
2022/01/16 07:49:01;;;;;;;394.60;221.90;;;;;;;;;;5102848;28;20035;-78
2022/01/16 07:51:26;;;;;;;364.17;191.75;;;;;;;;;;5093082;28;20024;-78
2022/01/16 07:53:52;;;;;;;395.85;210.75;;;;;;;;;;5093273;28;20036;-79
2022/01/16 07:56:18;;;;;;;259.40;131.32;;;;;;;;;;5094320;28;20031;-78
2022/01/16 07:58:43;;;;;;;393.50;211.27;;;;;;;;;;5091666;28;20114;-79
2022/01/16 08:01:08;;;;;;;379.25;210.75;;;;;;;;;;5092001;28;20110;-79
2022/01/16 08:03:34;;;;;;;165.43;85.13;;;;;;;;;;5093698;28;20027;-80
2022/01/16 08:05:59;;;;;;;951.05;457.90;;;;;;;;;;5093177;28;20061;-79
2022/01/16 08:08:24;;;;;;;267.55;118.88;;;;;;;;;;5093287;28;20022;-80
2022/01/16 08:10:50;;;;;;;343.40;193.40;;;;;;;;;;5093563;28;20024;-79
2022/01/16 08:13:15;;;;;;;395.30;207.45;;;;;;;;;;5092826;28;20043;-78
2022/01/16 08:15:43;;;;;;;301.35;154.95;;;;;;;;;;5096210;28;20389;-78
2022/01/16 08:18:09;;;;;;;343.88;192.75;;;;;;;;;;5094620;28;20032;-79
2022/01/16 08:20:34;;;;;;;641.03;314.48;;;;;;;;;;5097513;28;20905;-78
2022/01/16 08:22:59;;;;;;;818.40;409.17;;;;;;;;;;5097876;28;20632;-78
2022/01/16 08:25:25;;;;;;;332.75;147.07;;;;;;;;;;5096733;28;20026;-79
2022/01/16 08:27:51;;;;;;;209.05;106.03;;;;;;;;;;5096955;27;20023;-78
2022/01/16 08:30:16;;;;;;;1046.57;479.20;;;;;;;;;;5098348;28;20024;-77
2022/01/16 08:32:43;;;;;;;421.48;177.10;;;;;;;;;;5096658;28;20118;-77
2022/01/16 08:35:09;;;;;;;386.05;201.90;;;;;;;;;;5096540;28;20047;-77
2022/01/16 08:37:34;;;;;;;261.65;142.65;;;;;;;;;;5096515;28;20104;-77
2022/01/16 08:40:00;;;;;;;176.55;103.03;;;;;;;;;;5096367;28;20151;-77
2022/01/16 08:42:25;;;;;;;120.45;70.82;;;;;;;;;;5096491;28;20031;-77
2022/01/16 08:44:51;;;;;;;280.98;118.00;;;;;;;;;;5097901;28;20030;-78
2022/01/16 08:47:16;;;;;;;347.05;141.75;;;;;;;;;;5096659;28;20066;-78
2022/01/16 08:49:41;;;;;;;356.77;138.07;;;;;;;;;;5098188;28;20034;-77
2022/01/16 08:52:07;;;;;;;114.38;55.33;;;;;;;;;;5096815;28;20035;-78
2022/01/16 08:54:33;;;;;;;135.60;83.82;;;;;;;;;;5096045;28;20092;-78
2022/01/16 08:56:59;;;;;;;271.80;134.13;;;;;;;;;;5096581;28;20026;-79
2022/01/16 08:59:24;;;;;;;1999.90;592.30;;;;;;;;;;5096402;28;20020;-78
2022/01/16 09:01:49;;;;;;;1486.45;544.65;;;;;;;;;;5095994;28;20032;-78
2022/01/16 09:04:15;;;;;;;293.67;87.93;;;;;;;;;;5096568;28;20106;-77
2022/01/16 09:06:40;;;;;;;409.23;140.77;;;;;;;;;;5096696;28;20077;-79
2022/01/16 09:09:05;;;;;;;1138.43;486.02;;;;;;;;;;5110772;27;20481;-79
2022/01/16 09:11:31;;;;;;;312.30;104.53;;;;;;;;;;5116760;27;20055;-78
2022/01/16 09:13:58;;;;;;;174.43;62.25;;;;;;;;;;5117902;27;20024;-78
2022/01/16 09:16:24;;;;;;;95.65;42.17;;;;;;;;;;5116233;27;20059;-77
2022/01/16 09:18:49;;;;;;;63.13;30.13;;;;;;;;;;5118535;27;20142;-78
2022/01/16 09:21:18;;;;;;;61.55;34.50;;;;;;;;;;5118063;27;20057;-79
2022/01/16 09:23:44;;;;;;;48.88;28.65;;;;;;;;;;5116699;27;20027;-76
2022/01/16 09:26:09;;;;;;;51.65;29.88;;;;;;;;;;5116545;27;20023;-76
2022/01/16 09:28:35;;;;;;;48.67;27.52;;;;;;;;;;5115714;27;20476;-77
2022/01/16 09:31:00;;;;;;;34.75;22.83;;;;;;;;;;5116197;27;20023;-75
2022/01/16 09:33:25;;;;;;;35.70;22.15;;;;;;;;;;5117535;27;20160;-77
2022/01/16 09:35:51;;;;;;;34.15;17.52;;;;;;;;;;5115681;27;20035;-77
2022/01/16 09:38:17;;;;;;;136.55;54.03;;;;;;;;;;5118004;27;20096;-78
2022/01/16 09:40:44;;;;;;;22.55;14.18;;;;;;;;;;5116130;27;20061;-80
2022/01/16 09:43:09;;;;;;;28.58;19.73;;;;;;;;;;5115453;27;20034;-77
2022/01/16 09:45:35;;;;;;;33.17;21.90;;;;;;;;;;5115735;27;20031;-78
2022/01/16 09:48:01;;;;;;;29.45;17.83;;;;;;;;;;5116919;27;20105;-78
2022/01/16 09:50:26;;;;;;;24.17;15.75;;;;;;;;;;5116038;27;20025;-76
2022/01/16 09:52:53;;;;;;;20.65;14.90;;;;;;;;;;5115025;27;20019;-78
2022/01/16 09:55:20;;;;;;;25.70;17.38;;;;;;;;;;5114717;27;20027;-78
2022/01/16 09:57:45;;;;;;;34.67;21.15;;;;;;;;;;5114921;27;20027;-76
2022/01/16 10:00:12;;;;;;;37.63;23.60;;;;;;;;;;5115144;27;20023;-78
2022/01/16 10:02:38;;;;;;;20.50;13.45;;;;;;;;;;5115095;27;20038;-78
2022/01/16 10:05:20;;;;;;;36.85;23.17;;;;;;;;;;5115560;27;20023;-79
2022/01/16 10:07:47;;;;;;;37.80;27.63;;;;;;;;;;5115342;27;20058;-79
2022/01/16 10:10:12;;;;;;;32.67;21.00;;;;;;;;;;5114081;27;20058;-77
2022/01/16 10:12:46;;;;;;;49.92;30.08;;;;;;;;;;5112097;27;20511;-79
2022/01/16 10:15:18;;;;;;;30.98;19.02;;;;;;;;;;5096293;27;20389;-78
2022/01/16 10:17:45;;;;;;;27.30;17.00;;;;;;;;;;5108355;27;20466;-76
2022/01/16 10:20:10;;;;;;;28.88;19.30;;;;;;;;;;5099139;27;20072;-79
2022/01/16 10:22:36;;;;;;;21.27;13.98;;;;;;;;;;5104244;27;20031;-79
2022/01/16 10:25:04;;;;;;;26.58;16.67;;;;;;;;;;5093664;28;20028;-78
2022/01/16 10:27:33;;;;;;;25.55;16.83;;;;;;;;;;5093806;28;20375;-79
2022/01/16 10:29:59;;;;;;;24.92;16.77;;;;;;;;;;5095483;28;20035;-76
2022/01/16 10:32:26;;;;;;;31.23;19.27;;;;;;;;;;5101911;27;20477;-77
2022/01/16 10:35:06;;;;;;;27.75;17.90;;;;;;;;;;5097963;27;20042;-78
2022/01/16 10:37:32;;;;;;;37.83;24.15;;;;;;;;;;5096302;28;20151;-78
2022/01/16 10:40:03;;;;;;;31.42;21.27;;;;;;;;;;5094133;28;20484;-77
2022/01/16 10:42:30;;;;;;;30.25;21.80;;;;;;;;;;5095408;28;20093;-77
2022/01/16 10:45:04;;;;;;;30.77;22.63;;;;;;;;;;5094162;28;20553;-78
2022/01/16 10:47:39;;;;;;;34.22;22.83;;;;;;;;;;5094542;28;20024;-78
2022/01/16 10:50:08;;;;;;;28.15;18.83;;;;;;;;;;5094254;28;20030;-76
2022/01/16 10:52:44;;;;;;;22.63;14.82;;;;;;;;;;5095382;28;20043;-79
2022/01/16 10:55:10;;;;;;;19.85;13.98;;;;;;;;;;5095820;28;20168;-76
2022/01/16 10:57:35;;;;;;;29.20;18.92;;;;;;;;;;5094905;28;20801;-78
2022/01/16 11:00:09;;;;;;;24.33;16.45;;;;;;;;;;5094950;28;20446;-78
2022/01/16 11:02:35;;;;;;;33.58;23.90;;;;;;;;;;5093823;28;20031;-77
2022/01/16 11:05:08;;;;;;;29.80;17.88;;;;;;;;;;5094246;28;20031;-80
2022/01/16 11:07:34;;;;;;;32.80;22.27;;;;;;;;;;5095027;28;20022;-77
2022/01/16 11:10:00;;;;;;;31.23;20.20;;;;;;;;;;5095508;28;20031;-78
2022/01/16 11:12:26;;;;;;;23.88;14.95;;;;;;;;;;5094604;28;20553;-79
2022/01/16 11:14:51;;;;;;;31.73;23.55;;;;;;;;;;5093516;28;20034;-78
2022/01/16 11:17:16;;;;;;;41.85;25.92;;;;;;;;;;5095219;28;20538;-77
2022/01/16 11:19:42;;;;;;;29.58;21.08;;;;;;;;;;5095346;28;20027;-78
2022/01/16 11:22:10;;;;;;;32.15;19.17;;;;;;;;;;5096019;28;20036;-76
2022/01/16 11:24:48;;;;;;;36.50;19.48;;;;;;;;;;5095052;28;20049;-77
2022/01/16 11:27:16;;;;;;;25.10;17.30;;;;;;;;;;5093957;28;20469;-78
2022/01/16 11:29:42;;;;;;;46.58;30.73;;;;;;;;;;5093627;28;20118;-79
2022/01/16 11:32:08;;;;;;;41.47;29.25;;;;;;;;;;5095312;28;20492;-77
2022/01/16 11:34:35;;;;;;;30.15;20.42;;;;;;;;;;5093251;28;21067;-77
2022/01/16 11:37:01;;;;;;;25.50;17.73;;;;;;;;;;5100176;28;20081;-78
2022/01/16 11:39:32;;;;;;;46.70;30.38;;;;;;;;;;5109439;28;20420;-77
2022/01/16 11:41:59;;;;;;;44.13;27.08;;;;;;;;;;5114221;28;20023;-78
2022/01/16 11:44:28;;;;;;;32.33;23.52;;;;;;;;;;5115157;28;20025;-76
2022/01/16 11:46:55;;;;;;;29.65;21.20;;;;;;;;;;5104879;27;20028;-77
2022/01/16 11:49:34;;;;;;;34.00;24.17;;;;;;;;;;5093310;28;20797;-78
2022/01/16 11:52:07;;;;;;;78.60;43.17;;;;;;;;;;5093666;28;20059;-78
2022/01/16 11:54:34;;;;;;;32.10;20.90;;;;;;;;;;5094641;28;20020;-77
2022/01/16 11:57:01;;;;;;;26.00;18.55;;;;;;;;;;5098751;28;20503;-78
2022/01/16 11:59:35;;;;;;;26.73;16.90;;;;;;;;;;5099107;28;20076;-79
2022/01/16 12:02:16;;;;;;;23.40;16.60;;;;;;;;;;5099563;28;20084;-78
2022/01/16 12:04:45;;;;;;;29.83;19.05;;;;;;;;;;5098413;28;20026;-78
2022/01/16 12:07:13;;;;;;;22.75;14.95;;;;;;;;;;5096991;28;20020;-80
2022/01/16 12:12:12;;;;;;;21.35;13.73;;;;;;;;;;5096689;28;20591;-76
2022/01/16 12:14:48;;;;;;;23.90;17.77;;;;;;;;;;5097074;28;20500;-79
2022/01/16 12:17:33;;;;;;;25.38;18.23;;;;;;;;;;5098376;28;20340;-77
2022/01/16 12:20:14;;;;;;;24.50;15.45;;;;;;;;;;5116002;27;20051;-78
2022/01/16 12:22:43;;;;;;;25.35;17.52;;;;;;;;;;5104316;27;20076;-77
2022/01/16 12:25:27;;;;;;;23.17;16.10;;;;;;;;;;5104612;27;20555;-76
2022/01/16 12:27:53;;;;;;;30.50;20.98;;;;;;;;;;5106357;27;20056;-77
2022/01/16 12:30:24;;;;;;;32.05;19.63;;;;;;;;;;5107022;27;20461;-77
2022/01/16 12:32:51;;;;;;;40.22;25.08;;;;;;;;;;5106376;27;20462;-75
2022/01/16 12:35:36;;;;;;;55.25;31.13;;;;;;;;;;5105145;27;20018;-78
2022/01/16 12:38:22;;;;;;;77.32;41.53;;;;;;;;;;5105028;27;20023;-78
2022/01/16 12:40:52;;;;;;;56.00;36.53;;;;;;;;;;5107131;27;20397;-79
2022/01/16 12:43:30;;;;;;;;;;;;;;;;;;5109805;27;20042;-77
2022/01/16 12:45:56;;;;;;;62.40;39.45;;;;;;;;;;5103825;27;19911;-78
2022/01/16 12:48:21;;;;;;;51.38;32.20;;;;;;;;;;5105535;27;20020;-80
2022/01/16 12:50:46;;;;;;;44.90;30.45;;;;;;;;;;5105419;27;20449;-76
2022/01/16 12:53:12;;;;;;;28.73;20.75;;;;;;;;;;5101371;27;20179;-78
2022/01/16 12:55:37;;;;;;;27.95;18.67;;;;;;;;;;5096398;27;20027;-78
2022/01/16 12:58:18;;;;;;;43.03;27.08;;;;;;;;;;5096398;28;20454;-79
2022/01/16 13:00:59;;;;;;;40.80;27.88;;;;;;;;;;5095880;28;20742;-78
2022/01/16 13:03:28;;;;;;;29.33;19.77;;;;;;;;;;5096048;28;20028;-78
2022/01/16 13:06:12;;;;;;;25.47;18.10;;;;;;;;;;5097018;28;20020;-77
2022/01/16 13:09:12;;;;;;;46.63;28.05;;;;;;;;;;5097452;28;20327;-77
2022/01/16 13:11:46;;;;;;;37.53;24.10;;;;;;;;;;5034035;28;20055;-78
2022/01/16 13:14:22;;;;;;;38.25;27.80;;;;;;;;;;5087002;28;20146;-79
2022/01/16 13:16:49;;;;;;;37.55;25.38;;;;;;;;;;5095825;28;20509;-78
2022/01/16 13:19:18;;;;;;;40.05;26.17;;;;;;;;;;5095599;28;20118;-77
2022/01/16 13:24:47;;;;;;;48.60;32.63;;;;;;;;;;5097814;28;20092;-78
2022/01/16 13:27:17;;;;;;;49.35;31.95;;;;;;;;;;5095356;28;20053;-78
2022/01/16 13:29:47;;;;;;;38.17;26.55;;;;;;;;;;5098423;28;20020;-77
2022/01/16 13:32:14;;;;;;;34.10;23.15;;;;;;;;;;5124863;27;20030;-79
2022/01/16 13:34:44;;;;;;;35.92;23.98;;;;;;;;;;5138091;27;20160;-79
2022/01/16 13:37:14;;;;;;;37.50;25.23;;;;;;;;;;5138080;27;20138;-78
2022/01/16 13:39:44;;;;;;;38.33;27.20;;;;;;;;;;5136111;27;20026;-79
2022/01/16 13:42:17;;;;;;;42.38;29.50;;;;;;;;;;5127798;27;20038;-79
2022/01/16 13:44:43;;;;;;;32.13;20.60;;;;;;;;;;5134382;27;20540;-78
2022/01/16 13:47:08;;;;;;;57.90;39.10;;;;;;;;;;5117322;27;20032;-78
2022/01/16 13:49:34;;;;;;;35.58;23.55;;;;;;;;;;5101111;27;20106;-77
2022/01/16 13:52:00;;;;;;;42.97;30.65;;;;;;;;;;5093934;27;20402;-79
2022/01/16 13:54:30;;;;;;;44.88;30.05;;;;;;;;;;5098987;27;20028;-78
2022/01/16 13:56:57;;;;;;;33.58;25.42;;;;;;;;;;5095166;28;20046;-76
2022/01/16 13:59:23;;;;;;;38.83;25.83;;;;;;;;;;5095133;28;20082;-77
2022/01/16 14:01:52;;;;;;;39.22;26.70;;;;;;;;;;5094452;28;20573;-80
2022/01/16 14:04:18;;;;;;;35.33;21.00;;;;;;;;;;5095193;28;20023;-78
2022/01/16 14:06:46;;;;;;;48.65;30.33;;;;;;;;;;5096214;28;20038;-76
2022/01/16 14:09:12;;;;;;;42.88;27.95;;;;;;;;;;5094673;28;20118;-79
2022/01/16 14:11:49;;;;;;;32.55;21.35;;;;;;;;;;5094739;28;20126;-78
2022/01/16 14:14:15;;;;;;;46.45;29.00;;;;;;;;;;5095079;28;20028;-79
2022/01/16 14:16:47;;;;;;;43.38;27.77;;;;;;;;;;5095407;28;20031;-79
2022/01/16 14:19:15;;;;;;;48.78;29.90;;;;;;;;;;5096435;28;20027;-77
2022/01/16 14:21:59;;;;;;;50.65;29.40;;;;;;;;;;5096189;28;20051;-78
2022/01/16 14:24:29;;;;;;;38.90;22.98;;;;;;;;;;5113670;27;20019;-76
2022/01/16 14:26:55;;;;;;;39.88;24.20;;;;;;;;;;5115991;27;20023;-78
2022/01/16 14:29:21;;;;;;;46.95;26.27;;;;;;;;;;5114451;27;20472;-77
2022/01/16 14:31:48;;;;;;;57.13;30.85;;;;;;;;;;5116386;27;20023;-78
2022/01/16 14:34:14;;;;;;;63.90;36.80;;;;;;;;;;5115058;27;20061;-78
2022/01/16 14:36:40;;;;;;;52.40;30.10;;;;;;;;;;5114411;27;20453;-77
2022/01/16 14:39:06;;;;;;;46.90;27.60;;;;;;;;;;5116660;27;20075;-79
2022/01/16 14:41:33;;;;;;;48.67;28.90;;;;;;;;;;5114897;27;20027;-76
2022/01/16 14:44:00;;;;;;;57.80;34.40;;;;;;;;;;5116282;27;20030;-77
2022/01/16 14:46:28;;;;;;;64.78;35.58;;;;;;;;;;5116531;27;20026;-77
2022/01/16 14:48:54;;;;;;;64.03;36.10;;;;;;;;;;5116225;27;20059;-77
2022/01/16 14:51:19;;;;;;;80.13;45.70;;;;;;;;;;5116026;27;20015;-76
2022/01/16 14:53:45;;;;;;;57.65;35.20;;;;;;;;;;5116231;27;20472;-78
2022/01/16 14:56:12;;;;;;;43.58;27.00;;;;;;;;;;5114840;27;20078;-78
2022/01/16 14:58:37;;;;;;;48.70;33.40;;;;;;;;;;5114772;27;20461;-78